sensor_id;sensor_type;location;lat;lon;timestamp;P1;durP1;ratioP1;P2;durP2;ratioP2
77018;SDS011;66044;53.142;17.962;2023-06-10T00:01:02;8.40;;;3.70;;
77018;SDS011;66044;53.142;17.962;2023-06-10T00:03:52;8.90;;;3.90;;
77018;SDS011;66044;53.142;17.962;2023-06-10T00:06:19;11.20;;;4.00;;
77018;SDS011;66044;53.142;17.962;2023-06-10T00:08:47;9.40;;;4.00;;
77018;SDS011;66044;53.142;17.962;2023-06-10T00:11:14;10.60;;;3.80;;
77018;SDS011;66044;53.142;17.962;2023-06-10T00:13:40;8.20;;;3.60;;
77018;SDS011;66044;53.142;17.962;2023-06-10T00:16:07;9.20;;;4.00;;
77018;SDS011;66044;53.142;17.962;2023-06-10T00:18:33;9.10;;;3.70;;
77018;SDS011;66044;53.142;17.962;2023-06-10T00:21:03;10.00;;;3.30;;
77018;SDS011;66044;53.142;17.962;2023-06-10T00:23:31;10.40;;;3.80;;
77018;SDS011;66044;53.142;17.962;2023-06-10T00:25:58;7.90;;;4.10;;
77018;SDS011;66044;53.142;17.962;2023-06-10T00:28:25;9.10;;;4.10;;
77018;SDS011;66044;53.142;17.962;2023-06-10T00:30:52;10.30;;;4.20;;
77018;SDS011;66044;53.142;17.962;2023-06-10T00:33:19;9.80;;;3.80;;
77018;SDS011;66044;53.142;17.962;2023-06-10T00:35:45;9.20;;;3.90;;
77018;SDS011;66044;53.142;17.962;2023-06-10T00:38:13;8.80;;;3.60;;
77018;SDS011;66044;53.142;17.962;2023-06-10T00:40:41;9.70;;;3.90;;
77018;SDS011;66044;53.142;17.962;2023-06-10T00:43:07;8.80;;;4.10;;
77018;SDS011;66044;53.142;17.962;2023-06-10T00:45:34;8.10;;;4.10;;
77018;SDS011;66044;53.142;17.962;2023-06-10T00:48:01;9.60;;;3.90;;
77018;SDS011;66044;53.142;17.962;2023-06-10T00:50:28;10.70;;;3.80;;
77018;SDS011;66044;53.142;17.962;2023-06-10T00:52:55;11.30;;;3.90;;
77018;SDS011;66044;53.142;17.962;2023-06-10T00:55:22;9.90;;;3.60;;
77018;SDS011;66044;53.142;17.962;2023-06-10T00:57:49;11.50;;;4.10;;
77018;SDS011;66044;53.142;17.962;2023-06-10T01:00:17;9.80;;;3.50;;
77018;SDS011;66044;53.142;17.962;2023-06-10T01:02:45;10.70;;;3.90;;
77018;SDS011;66044;53.142;17.962;2023-06-10T01:05:11;7.90;;;3.60;;
77018;SDS011;66044;53.142;17.962;2023-06-10T01:10:43;7.60;;;3.90;;
77018;SDS011;66044;53.142;17.962;2023-06-10T01:13:13;11.10;;;4.10;;
77018;SDS011;66044;53.142;17.962;2023-06-10T01:15:40;9.40;;;4.00;;
77018;SDS011;66044;53.142;17.962;2023-06-10T01:18:07;9.50;;;4.10;;
77018;SDS011;66044;53.142;17.962;2023-06-10T01:20:36;8.50;;;4.30;;
77018;SDS011;66044;53.142;17.962;2023-06-10T01:23:07;8.60;;;4.00;;
77018;SDS011;66044;53.142;17.962;2023-06-10T01:25:37;7.80;;;3.60;;
77018;SDS011;66044;53.142;17.962;2023-06-10T01:28:24;8.00;;;3.60;;
77018;SDS011;66044;53.142;17.962;2023-06-10T01:33:52;17.60;;;4.60;;
77018;SDS011;66044;53.142;17.962;2023-06-10T01:36:20;10.70;;;3.80;;
77018;SDS011;66044;53.142;17.962;2023-06-10T01:38:49;9.50;;;3.90;;
77018;SDS011;66044;53.142;17.962;2023-06-10T01:41:17;10.80;;;3.90;;
77018;SDS011;66044;53.142;17.962;2023-06-10T01:43:45;11.20;;;4.00;;
77018;SDS011;66044;53.142;17.962;2023-06-10T01:46:12;8.80;;;3.80;;
77018;SDS011;66044;53.142;17.962;2023-06-10T01:48:41;9.00;;;4.20;;
77018;SDS011;66044;53.142;17.962;2023-06-10T01:51:08;8.70;;;4.10;;
77018;SDS011;66044;53.142;17.962;2023-06-10T01:53:34;8.80;;;4.00;;
77018;SDS011;66044;53.142;17.962;2023-06-10T01:56:01;12.70;;;4.50;;
77018;SDS011;66044;53.142;17.962;2023-06-10T01:58:27;9.40;;;4.30;;
77018;SDS011;66044;53.142;17.962;2023-06-10T02:00:54;10.90;;;4.50;;
77018;SDS011;66044;53.142;17.962;2023-06-10T02:03:20;9.40;;;3.90;;
77018;SDS011;66044;53.142;17.962;2023-06-10T02:05:47;8.80;;;4.10;;
77018;SDS011;66044;53.142;17.962;2023-06-10T02:08:13;12.00;;;4.30;;
77018;SDS011;66044;53.142;17.962;2023-06-10T02:10:40;9.30;;;4.00;;
77018;SDS011;66044;53.142;17.962;2023-06-10T02:13:07;8.60;;;4.20;;
77018;SDS011;66044;53.142;17.962;2023-06-10T02:15:33;11.80;;;4.60;;
77018;SDS011;66044;53.142;17.962;2023-06-10T02:18:01;10.50;;;4.40;;
77018;SDS011;66044;53.142;17.962;2023-06-10T02:20:28;10.40;;;4.60;;
77018;SDS011;66044;53.142;17.962;2023-06-10T02:22:55;9.10;;;3.90;;
77018;SDS011;66044;53.142;17.962;2023-06-10T02:25:21;9.40;;;3.90;;
77018;SDS011;66044;53.142;17.962;2023-06-10T02:27:48;12.40;;;3.90;;
77018;SDS011;66044;53.142;17.962;2023-06-10T02:30:14;9.70;;;3.90;;
77018;SDS011;66044;53.142;17.962;2023-06-10T02:32:41;9.90;;;4.20;;
77018;SDS011;66044;53.142;17.962;2023-06-10T02:35:08;10.90;;;3.70;;
77018;SDS011;66044;53.142;17.962;2023-06-10T02:37:38;12.30;;;4.20;;
77018;SDS011;66044;53.142;17.962;2023-06-10T02:40:05;9.50;;;4.40;;
77018;SDS011;66044;53.142;17.962;2023-06-10T02:42:32;9.80;;;4.20;;
77018;SDS011;66044;53.142;17.962;2023-06-10T02:44:59;10.90;;;4.50;;
77018;SDS011;66044;53.142;17.962;2023-06-10T02:47:27;10.00;;;3.90;;
77018;SDS011;66044;53.142;17.962;2023-06-10T02:49:53;10.00;;;4.10;;
77018;SDS011;66044;53.142;17.962;2023-06-10T02:52:19;8.80;;;4.20;;
77018;SDS011;66044;53.142;17.962;2023-06-10T02:54:46;9.10;;;3.70;;
77018;SDS011;66044;53.142;17.962;2023-06-10T02:57:13;12.60;;;4.70;;
77018;SDS011;66044;53.142;17.962;2023-06-10T02:59:40;8.80;;;4.30;;
77018;SDS011;66044;53.142;17.962;2023-06-10T03:02:07;8.80;;;4.40;;
77018;SDS011;66044;53.142;17.962;2023-06-10T03:04:33;9.30;;;4.20;;
77018;SDS011;66044;53.142;17.962;2023-06-10T03:07:00;9.50;;;4.50;;
77018;SDS011;66044;53.142;17.962;2023-06-10T03:09:29;11.00;;;4.80;;
77018;SDS011;66044;53.142;17.962;2023-06-10T03:11:56;11.90;;;4.50;;
77018;SDS011;66044;53.142;17.962;2023-06-10T03:14:22;11.80;;;4.70;;
77018;SDS011;66044;53.142;17.962;2023-06-10T03:16:51;9.20;;;4.70;;
77018;SDS011;66044;53.142;17.962;2023-06-10T03:19:17;11.40;;;5.40;;
77018;SDS011;66044;53.142;17.962;2023-06-10T03:21:44;11.50;;;4.70;;
77018;SDS011;66044;53.142;17.962;2023-06-10T03:24:11;8.90;;;3.90;;
77018;SDS011;66044;53.142;17.962;2023-06-10T03:26:38;9.00;;;4.00;;
77018;SDS011;66044;53.142;17.962;2023-06-10T03:29:04;9.60;;;4.20;;
77018;SDS011;66044;53.142;17.962;2023-06-10T03:31:31;11.80;;;4.40;;
77018;SDS011;66044;53.142;17.962;2023-06-10T03:33:58;9.90;;;4.00;;
77018;SDS011;66044;53.142;17.962;2023-06-10T03:36:25;10.80;;;4.40;;
77018;SDS011;66044;53.142;17.962;2023-06-10T03:38:55;9.90;;;3.90;;
77018;SDS011;66044;53.142;17.962;2023-06-10T03:41:23;10.90;;;4.20;;
77018;SDS011;66044;53.142;17.962;2023-06-10T03:43:49;7.50;;;3.60;;
77018;SDS011;66044;53.142;17.962;2023-06-10T03:46:16;10.50;;;4.50;;
77018;SDS011;66044;53.142;17.962;2023-06-10T03:48:43;11.50;;;4.00;;
77018;SDS011;66044;53.142;17.962;2023-06-10T03:51:10;9.80;;;3.50;;
77018;SDS011;66044;53.142;17.962;2023-06-10T03:53:36;9.40;;;4.00;;
77018;SDS011;66044;53.142;17.962;2023-06-10T03:56:03;8.80;;;3.80;;
77018;SDS011;66044;53.142;17.962;2023-06-10T03:58:30;11.80;;;4.10;;
77018;SDS011;66044;53.142;17.962;2023-06-10T04:00:57;9.20;;;3.00;;
77018;SDS011;66044;53.142;17.962;2023-06-10T04:03:26;10.00;;;3.70;;
77018;SDS011;66044;53.142;17.962;2023-06-10T04:05:53;7.90;;;3.60;;
77018;SDS011;66044;53.142;17.962;2023-06-10T04:08:19;10.10;;;3.80;;
77018;SDS011;66044;53.142;17.962;2023-06-10T04:10:46;9.20;;;3.60;;
77018;SDS011;66044;53.142;17.962;2023-06-10T04:13:13;9.90;;;4.20;;
77018;SDS011;66044;53.142;17.962;2023-06-10T04:15:40;10.10;;;3.70;;
77018;SDS011;66044;53.142;17.962;2023-06-10T04:18:07;8.90;;;3.60;;
77018;SDS011;66044;53.142;17.962;2023-06-10T04:20:33;10.40;;;3.70;;
77018;SDS011;66044;53.142;17.962;2023-06-10T04:23:00;10.80;;;3.70;;
77018;SDS011;66044;53.142;17.962;2023-06-10T04:25:27;7.50;;;3.60;;
77018;SDS011;66044;53.142;17.962;2023-06-10T04:27:54;11.30;;;3.60;;
77018;SDS011;66044;53.142;17.962;2023-06-10T04:30:21;8.30;;;3.10;;
77018;SDS011;66044;53.142;17.962;2023-06-10T04:32:47;8.20;;;3.00;;
77018;SDS011;66044;53.142;17.962;2023-06-10T04:35:14;11.40;;;3.80;;
77018;SDS011;66044;53.142;17.962;2023-06-10T04:37:41;8.40;;;3.00;;
77018;SDS011;66044;53.142;17.962;2023-06-10T04:40:08;6.80;;;3.00;;
77018;SDS011;66044;53.142;17.962;2023-06-10T04:42:36;8.50;;;3.20;;
77018;SDS011;66044;53.142;17.962;2023-06-10T04:45:03;7.90;;;2.90;;
77018;SDS011;66044;53.142;17.962;2023-06-10T04:47:30;11.50;;;3.40;;
77018;SDS011;66044;53.142;17.962;2023-06-10T04:49:59;10.30;;;3.00;;
77018;SDS011;66044;53.142;17.962;2023-06-10T04:52:27;10.40;;;3.20;;
77018;SDS011;66044;53.142;17.962;2023-06-10T04:54:53;8.10;;;3.30;;
77018;SDS011;66044;53.142;17.962;2023-06-10T04:57:20;8.90;;;3.30;;
77018;SDS011;66044;53.142;17.962;2023-06-10T04:59:47;14.10;;;3.30;;
77018;SDS011;66044;53.142;17.962;2023-06-10T05:02:14;6.90;;;2.80;;
77018;SDS011;66044;53.142;17.962;2023-06-10T05:04:40;9.10;;;3.00;;
77018;SDS011;66044;53.142;17.962;2023-06-10T05:07:07;10.70;;;3.00;;
77018;SDS011;66044;53.142;17.962;2023-06-10T05:09:33;10.90;;;3.00;;
77018;SDS011;66044;53.142;17.962;2023-06-10T05:12:00;12.00;;;3.00;;
77018;SDS011;66044;53.142;17.962;2023-06-10T05:14:26;7.30;;;2.90;;
77018;SDS011;66044;53.142;17.962;2023-06-10T05:16:53;10.20;;;2.50;;
77018;SDS011;66044;53.142;17.962;2023-06-10T05:19:20;10.40;;;3.50;;
77018;SDS011;66044;53.142;17.962;2023-06-10T05:21:47;9.00;;;2.90;;
77018;SDS011;66044;53.142;17.962;2023-06-10T05:24:14;8.80;;;3.30;;
77018;SDS011;66044;53.142;17.962;2023-06-10T05:26:40;6.80;;;2.80;;
77018;SDS011;66044;53.142;17.962;2023-06-10T05:29:07;8.20;;;3.20;;
77018;SDS011;66044;53.142;17.962;2023-06-10T05:31:35;10.50;;;2.90;;
77018;SDS011;66044;53.142;17.962;2023-06-10T05:34:02;7.60;;;2.80;;
77018;SDS011;66044;53.142;17.962;2023-06-10T05:36:28;7.60;;;2.60;;
77018;SDS011;66044;53.142;17.962;2023-06-10T05:38:55;9.40;;;2.80;;
77018;SDS011;66044;53.142;17.962;2023-06-10T05:41:21;7.70;;;2.40;;
77018;SDS011;66044;53.142;17.962;2023-06-10T05:43:48;7.20;;;2.30;;
77018;SDS011;66044;53.142;17.962;2023-06-10T05:46:15;10.50;;;2.70;;
77018;SDS011;66044;53.142;17.962;2023-06-10T05:48:41;7.70;;;2.60;;
77018;SDS011;66044;53.142;17.962;2023-06-10T05:51:07;8.20;;;2.50;;
77018;SDS011;66044;53.142;17.962;2023-06-10T05:53:34;9.20;;;2.70;;
77018;SDS011;66044;53.142;17.962;2023-06-10T05:56:01;18.20;;;2.80;;
77018;SDS011;66044;53.142;17.962;2023-06-10T05:58:27;8.90;;;2.70;;
77018;SDS011;66044;53.142;17.962;2023-06-10T06:00:54;8.60;;;2.90;;
77018;SDS011;66044;53.142;17.962;2023-06-10T06:03:20;8.00;;;2.50;;
77018;SDS011;66044;53.142;17.962;2023-06-10T06:05:47;7.80;;;2.70;;
77018;SDS011;66044;53.142;17.962;2023-06-10T06:08:13;6.20;;;2.60;;
77018;SDS011;66044;53.142;17.962;2023-06-10T06:10:44;10.50;;;3.00;;
77018;SDS011;66044;53.142;17.962;2023-06-10T06:13:11;11.10;;;3.50;;
77018;SDS011;66044;53.142;17.962;2023-06-10T06:15:37;8.20;;;3.10;;
77018;SDS011;66044;53.142;17.962;2023-06-10T06:18:04;11.00;;;3.30;;
77018;SDS011;66044;53.142;17.962;2023-06-10T06:20:30;9.90;;;3.60;;
77018;SDS011;66044;53.142;17.962;2023-06-10T06:22:57;7.70;;;2.90;;
77018;SDS011;66044;53.142;17.962;2023-06-10T06:25:23;10.20;;;3.40;;
77018;SDS011;66044;53.142;17.962;2023-06-10T06:27:50;8.60;;;3.10;;
77018;SDS011;66044;53.142;17.962;2023-06-10T06:30:16;7.40;;;3.00;;
77018;SDS011;66044;53.142;17.962;2023-06-10T06:32:43;6.90;;;2.90;;
77018;SDS011;66044;53.142;17.962;2023-06-10T06:35:09;7.50;;;3.00;;
77018;SDS011;66044;53.142;17.962;2023-06-10T06:37:36;9.20;;;3.50;;
77018;SDS011;66044;53.142;17.962;2023-06-10T06:40:03;7.80;;;3.10;;
77018;SDS011;66044;53.142;17.962;2023-06-10T06:42:30;7.60;;;3.10;;
77018;SDS011;66044;53.142;17.962;2023-06-10T06:44:57;6.70;;;2.60;;
77018;SDS011;66044;53.142;17.962;2023-06-10T06:47:23;8.80;;;2.80;;
77018;SDS011;66044;53.142;17.962;2023-06-10T06:49:50;11.60;;;2.80;;
77018;SDS011;66044;53.142;17.962;2023-06-10T06:52:17;9.20;;;3.40;;
77018;SDS011;66044;53.142;17.962;2023-06-10T06:54:45;8.50;;;2.50;;
77018;SDS011;66044;53.142;17.962;2023-06-10T06:57:11;9.50;;;2.40;;
77018;SDS011;66044;53.142;17.962;2023-06-10T06:59:38;6.70;;;2.60;;
77018;SDS011;66044;53.142;17.962;2023-06-10T07:02:04;8.50;;;2.70;;
77018;SDS011;66044;53.142;17.962;2023-06-10T07:04:31;7.20;;;2.40;;
77018;SDS011;66044;53.142;17.962;2023-06-10T07:06:58;8.40;;;2.70;;
77018;SDS011;66044;53.142;17.962;2023-06-10T07:09:24;7.70;;;2.40;;
77018;SDS011;66044;53.142;17.962;2023-06-10T07:11:51;7.50;;;2.30;;
77018;SDS011;66044;53.142;17.962;2023-06-10T07:14:17;6.20;;;2.10;;
77018;SDS011;66044;53.142;17.962;2023-06-10T07:16:44;7.80;;;2.30;;
77018;SDS011;66044;53.142;17.962;2023-06-10T07:19:12;6.90;;;2.10;;
77018;SDS011;66044;53.142;17.962;2023-06-10T07:21:38;6.60;;;1.80;;
77018;SDS011;66044;53.142;17.962;2023-06-10T07:24:05;9.70;;;2.20;;
77018;SDS011;66044;53.142;17.962;2023-06-10T07:26:32;5.90;;;1.90;;
77018;SDS011;66044;53.142;17.962;2023-06-10T07:28:59;7.20;;;1.80;;
77018;SDS011;66044;53.142;17.962;2023-06-10T07:31:25;7.70;;;2.20;;
77018;SDS011;66044;53.142;17.962;2023-06-10T07:33:52;5.40;;;1.50;;
77018;SDS011;66044;53.142;17.962;2023-06-10T07:36:18;7.50;;;2.10;;
77018;SDS011;66044;53.142;17.962;2023-06-10T07:38:45;5.60;;;2.10;;
77018;SDS011;66044;53.142;17.962;2023-06-10T07:41:11;9.40;;;2.20;;
77018;SDS011;66044;53.142;17.962;2023-06-10T07:43:38;5.90;;;2.10;;
77018;SDS011;66044;53.142;17.962;2023-06-10T07:46:05;6.70;;;2.40;;
77018;SDS011;66044;53.142;17.962;2023-06-10T07:48:31;8.10;;;2.40;;
77018;SDS011;66044;53.142;17.962;2023-06-10T07:51:01;7.60;;;2.70;;
77018;SDS011;66044;53.142;17.962;2023-06-10T07:53:27;7.20;;;2.70;;
77018;SDS011;66044;53.142;17.962;2023-06-10T07:55:54;9.00;;;2.50;;
77018;SDS011;66044;53.142;17.962;2023-06-10T07:58:20;9.50;;;2.40;;
77018;SDS011;66044;53.142;17.962;2023-06-10T08:00:48;8.50;;;3.00;;
77018;SDS011;66044;53.142;17.962;2023-06-10T08:03:14;9.60;;;3.10;;
77018;SDS011;66044;53.142;17.962;2023-06-10T08:05:41;10.00;;;2.90;;
77018;SDS011;66044;53.142;17.962;2023-06-10T08:08:07;8.90;;;3.20;;
77018;SDS011;66044;53.142;17.962;2023-06-10T08:10:33;10.10;;;3.00;;
77018;SDS011;66044;53.142;17.962;2023-06-10T08:13:00;8.50;;;3.30;;
77018;SDS011;66044;53.142;17.962;2023-06-10T08:15:27;8.00;;;3.00;;
77018;SDS011;66044;53.142;17.962;2023-06-10T08:17:53;7.10;;;3.00;;
77018;SDS011;66044;53.142;17.962;2023-06-10T08:20:19;9.00;;;2.80;;
77018;SDS011;66044;53.142;17.962;2023-06-10T08:22:46;7.50;;;2.80;;
77018;SDS011;66044;53.142;17.962;2023-06-10T08:25:12;9.50;;;3.60;;
77018;SDS011;66044;53.142;17.962;2023-06-10T08:27:39;10.90;;;3.40;;
77018;SDS011;66044;53.142;17.962;2023-06-10T08:30:05;8.00;;;2.40;;
77018;SDS011;66044;53.142;17.962;2023-06-10T08:32:33;7.80;;;2.80;;
77018;SDS011;66044;53.142;17.962;2023-06-10T08:34:59;8.80;;;2.70;;
77018;SDS011;66044;53.142;17.962;2023-06-10T08:37:26;8.50;;;2.80;;
77018;SDS011;66044;53.142;17.962;2023-06-10T08:39:52;8.50;;;2.80;;
77018;SDS011;66044;53.142;17.962;2023-06-10T08:42:22;11.00;;;2.80;;
77018;SDS011;66044;53.142;17.962;2023-06-10T08:44:54;8.40;;;2.60;;
77018;SDS011;66044;53.142;17.962;2023-06-10T08:47:22;7.30;;;2.30;;
77018;SDS011;66044;53.142;17.962;2023-06-10T08:49:50;8.90;;;2.90;;
77018;SDS011;66044;53.142;17.962;2023-06-10T08:52:20;7.40;;;2.60;;
77018;SDS011;66044;53.142;17.962;2023-06-10T08:54:57;9.00;;;2.60;;
77018;SDS011;66044;53.142;17.962;2023-06-10T08:57:26;6.90;;;2.60;;
77018;SDS011;66044;53.142;17.962;2023-06-10T08:59:53;7.40;;;2.50;;
77018;SDS011;66044;53.142;17.962;2023-06-10T09:02:27;10.40;;;2.80;;
77018;SDS011;66044;53.142;17.962;2023-06-10T09:04:54;7.70;;;2.90;;
77018;SDS011;66044;53.142;17.962;2023-06-10T09:07:23;10.10;;;2.60;;
77018;SDS011;66044;53.142;17.962;2023-06-10T09:09:49;9.30;;;2.60;;
77018;SDS011;66044;53.142;17.962;2023-06-10T09:12:16;7.80;;;2.70;;
77018;SDS011;66044;53.142;17.962;2023-06-10T09:14:43;7.10;;;2.60;;
77018;SDS011;66044;53.142;17.962;2023-06-10T09:17:09;12.40;;;3.40;;
77018;SDS011;66044;53.142;17.962;2023-06-10T09:19:37;8.80;;;2.70;;
77018;SDS011;66044;53.142;17.962;2023-06-10T09:22:06;9.30;;;2.80;;
77018;SDS011;66044;53.142;17.962;2023-06-10T09:24:32;9.70;;;3.00;;
77018;SDS011;66044;53.142;17.962;2023-06-10T09:27:06;12.80;;;2.70;;
77018;SDS011;66044;53.142;17.962;2023-06-10T09:29:46;7.70;;;2.90;;
77018;SDS011;66044;53.142;17.962;2023-06-10T09:32:17;8.20;;;2.90;;
77018;SDS011;66044;53.142;17.962;2023-06-10T09:34:44;7.50;;;2.40;;
77018;SDS011;66044;53.142;17.962;2023-06-10T09:37:12;7.50;;;2.40;;
77018;SDS011;66044;53.142;17.962;2023-06-10T09:39:40;9.60;;;2.60;;
77018;SDS011;66044;53.142;17.962;2023-06-10T09:42:16;8.00;;;2.70;;
77018;SDS011;66044;53.142;17.962;2023-06-10T09:44:50;7.50;;;2.60;;
77018;SDS011;66044;53.142;17.962;2023-06-10T09:47:21;7.20;;;2.30;;
77018;SDS011;66044;53.142;17.962;2023-06-10T09:49:49;7.00;;;2.50;;
77018;SDS011;66044;53.142;17.962;2023-06-10T09:52:21;7.80;;;2.40;;
77018;SDS011;66044;53.142;17.962;2023-06-10T09:54:52;17.40;;;2.80;;
77018;SDS011;66044;53.142;17.962;2023-06-10T09:57:20;7.00;;;2.50;;
77018;SDS011;66044;53.142;17.962;2023-06-10T09:59:47;7.30;;;2.60;;
77018;SDS011;66044;53.142;17.962;2023-06-10T10:02:18;7.60;;;2.20;;
77018;SDS011;66044;53.142;17.962;2023-06-10T10:04:45;6.20;;;2.10;;
77018;SDS011;66044;53.142;17.962;2023-06-10T10:07:12;8.00;;;2.30;;
77018;SDS011;66044;53.142;17.962;2023-06-10T10:09:39;11.20;;;2.40;;
77018;SDS011;66044;53.142;17.962;2023-06-10T10:12:09;6.40;;;2.20;;
77018;SDS011;66044;53.142;17.962;2023-06-10T10:14:37;8.30;;;2.10;;
77018;SDS011;66044;53.142;17.962;2023-06-10T10:17:07;8.00;;;2.50;;
77018;SDS011;66044;53.142;17.962;2023-06-10T10:19:40;8.00;;;1.90;;
77018;SDS011;66044;53.142;17.962;2023-06-10T10:22:26;7.90;;;2.40;;
77018;SDS011;66044;53.142;17.962;2023-06-10T10:24:57;7.00;;;2.20;;
77018;SDS011;66044;53.142;17.962;2023-06-10T10:27:28;6.00;;;2.10;;
77018;SDS011;66044;53.142;17.962;2023-06-10T10:30:02;7.50;;;2.60;;
77018;SDS011;66044;53.142;17.962;2023-06-10T10:32:43;6.40;;;2.50;;
77018;SDS011;66044;53.142;17.962;2023-06-10T10:35:20;9.70;;;2.90;;
77018;SDS011;66044;53.142;17.962;2023-06-10T10:37:53;8.10;;;2.60;;
77018;SDS011;66044;53.142;17.962;2023-06-10T10:40:21;10.00;;;2.30;;
77018;SDS011;66044;53.142;17.962;2023-06-10T10:42:49;7.10;;;2.70;;
77018;SDS011;66044;53.142;17.962;2023-06-10T10:45:17;7.10;;;2.20;;
77018;SDS011;66044;53.142;17.962;2023-06-10T10:47:46;11.00;;;2.40;;
77018;SDS011;66044;53.142;17.962;2023-06-10T10:50:20;8.00;;;2.40;;
77018;SDS011;66044;53.142;17.962;2023-06-10T10:55:23;7.20;;;2.50;;
77018;SDS011;66044;53.142;17.962;2023-06-10T10:58:02;6.20;;;2.40;;
77018;SDS011;66044;53.142;17.962;2023-06-10T11:00:36;8.00;;;2.20;;
77018;SDS011;66044;53.142;17.962;2023-06-10T11:03:07;7.90;;;2.30;;
77018;SDS011;66044;53.142;17.962;2023-06-10T11:05:39;8.50;;;2.30;;
77018;SDS011;66044;53.142;17.962;2023-06-10T11:08:10;8.10;;;2.50;;
77018;SDS011;66044;53.142;17.962;2023-06-10T11:10:38;5.60;;;2.10;;
77018;SDS011;66044;53.142;17.962;2023-06-10T11:13:09;10.10;;;2.30;;
77018;SDS011;66044;53.142;17.962;2023-06-10T11:15:46;6.10;;;2.00;;
77018;SDS011;66044;53.142;17.962;2023-06-10T11:18:23;8.90;;;2.40;;
77018;SDS011;66044;53.142;17.962;2023-06-10T11:20:54;11.20;;;2.60;;
77018;SDS011;66044;53.142;17.962;2023-06-10T11:23:35;7.10;;;1.90;;
77018;SDS011;66044;53.142;17.962;2023-06-10T11:26:18;6.20;;;2.30;;
77018;SDS011;66044;53.142;17.962;2023-06-10T11:31:25;5.30;;;1.70;;
77018;SDS011;66044;53.142;17.962;2023-06-10T11:33:55;6.50;;;2.20;;
77018;SDS011;66044;53.142;17.962;2023-06-10T11:36:24;5.90;;;2.10;;
77018;SDS011;66044;53.142;17.962;2023-06-10T11:38:53;6.70;;;1.90;;
77018;SDS011;66044;53.142;17.962;2023-06-10T11:41:26;10.80;;;2.00;;
77018;SDS011;66044;53.142;17.962;2023-06-10T11:43:55;7.70;;;1.90;;
77018;SDS011;66044;53.142;17.962;2023-06-10T11:46:23;7.30;;;2.20;;
77018;SDS011;66044;53.142;17.962;2023-06-10T11:48:51;8.00;;;2.50;;
77018;SDS011;66044;53.142;17.962;2023-06-10T11:51:19;7.20;;;2.00;;
77018;SDS011;66044;53.142;17.962;2023-06-10T11:53:50;5.70;;;1.70;;
77018;SDS011;66044;53.142;17.962;2023-06-10T11:56:20;6.70;;;2.30;;
77018;SDS011;66044;53.142;17.962;2023-06-10T11:58:52;5.50;;;2.00;;
77018;SDS011;66044;53.142;17.962;2023-06-10T12:01:21;6.70;;;2.10;;
77018;SDS011;66044;53.142;17.962;2023-06-10T12:03:59;7.00;;;2.30;;
77018;SDS011;66044;53.142;17.962;2023-06-10T12:06:37;7.40;;;2.10;;
77018;SDS011;66044;53.142;17.962;2023-06-10T12:09:17;6.40;;;1.70;;
77018;SDS011;66044;53.142;17.962;2023-06-10T12:11:48;8.30;;;1.90;;
77018;SDS011;66044;53.142;17.962;2023-06-10T12:14:49;8.50;;;2.10;;
77018;SDS011;66044;53.142;17.962;2023-06-10T12:20:04;8.70;;;2.20;;
77018;SDS011;66044;53.142;17.962;2023-06-10T12:25:05;6.30;;;2.00;;
77018;SDS011;66044;53.142;17.962;2023-06-10T12:27:33;7.20;;;1.90;;
77018;SDS011;66044;53.142;17.962;2023-06-10T12:30:01;8.30;;;1.90;;
77018;SDS011;66044;53.142;17.962;2023-06-10T12:32:40;7.40;;;1.80;;
77018;SDS011;66044;53.142;17.962;2023-06-10T12:35:08;6.00;;;1.80;;
77018;SDS011;66044;53.142;17.962;2023-06-10T12:37:38;7.30;;;2.30;;
77018;SDS011;66044;53.142;17.962;2023-06-10T12:40:06;9.00;;;2.10;;
77018;SDS011;66044;53.142;17.962;2023-06-10T12:42:35;6.30;;;2.10;;
77018;SDS011;66044;53.142;17.962;2023-06-10T12:45:03;7.40;;;2.10;;
77018;SDS011;66044;53.142;17.962;2023-06-10T12:47:33;6.00;;;1.70;;
77018;SDS011;66044;53.142;17.962;2023-06-10T12:50:02;5.10;;;1.70;;
77018;SDS011;66044;53.142;17.962;2023-06-10T12:52:29;7.20;;;1.80;;
77018;SDS011;66044;53.142;17.962;2023-06-10T12:54:56;5.80;;;1.40;;
77018;SDS011;66044;53.142;17.962;2023-06-10T12:57:22;7.40;;;1.60;;
77018;SDS011;66044;53.142;17.962;2023-06-10T12:59:49;10.50;;;2.00;;
77018;SDS011;66044;53.142;17.962;2023-06-10T13:02:19;13.50;;;2.10;;
77018;SDS011;66044;53.142;17.962;2023-06-10T13:04:46;6.20;;;1.50;;
77018;SDS011;66044;53.142;17.962;2023-06-10T13:07:14;7.10;;;1.80;;
77018;SDS011;66044;53.142;17.962;2023-06-10T13:09:42;6.30;;;1.90;;
77018;SDS011;66044;53.142;17.962;2023-06-10T13:12:09;5.30;;;1.60;;
77018;SDS011;66044;53.142;17.962;2023-06-10T13:14:36;6.70;;;1.90;;
77018;SDS011;66044;53.142;17.962;2023-06-10T13:17:06;6.30;;;1.80;;
77018;SDS011;66044;53.142;17.962;2023-06-10T13:19:33;6.80;;;1.60;;
77018;SDS011;66044;53.142;17.962;2023-06-10T13:21:59;6.10;;;1.60;;
77018;SDS011;66044;53.142;17.962;2023-06-10T13:24:26;7.80;;;2.00;;
77018;SDS011;66044;53.142;17.962;2023-06-10T13:26:53;6.40;;;1.90;;
77018;SDS011;66044;53.142;17.962;2023-06-10T13:29:21;6.00;;;1.80;;
77018;SDS011;66044;53.142;17.962;2023-06-10T13:31:48;7.20;;;1.90;;
77018;SDS011;66044;53.142;17.962;2023-06-10T13:34:14;8.80;;;2.20;;
77018;SDS011;66044;53.142;17.962;2023-06-10T13:36:41;5.70;;;1.80;;
77018;SDS011;66044;53.142;17.962;2023-06-10T13:39:07;7.00;;;1.90;;
77018;SDS011;66044;53.142;17.962;2023-06-10T13:41:33;9.00;;;1.70;;
77018;SDS011;66044;53.142;17.962;2023-06-10T13:44:00;6.90;;;2.00;;
77018;SDS011;66044;53.142;17.962;2023-06-10T13:46:26;7.40;;;1.90;;
77018;SDS011;66044;53.142;17.962;2023-06-10T13:48:53;7.90;;;2.50;;
77018;SDS011;66044;53.142;17.962;2023-06-10T13:51:20;8.10;;;2.40;;
77018;SDS011;66044;53.142;17.962;2023-06-10T13:53:46;6.20;;;2.10;;
77018;SDS011;66044;53.142;17.962;2023-06-10T13:56:13;7.40;;;2.00;;
77018;SDS011;66044;53.142;17.962;2023-06-10T13:58:40;5.60;;;1.90;;
77018;SDS011;66044;53.142;17.962;2023-06-10T14:01:08;8.90;;;2.00;;
77018;SDS011;66044;53.142;17.962;2023-06-10T14:03:35;5.60;;;1.90;;
77018;SDS011;66044;53.142;17.962;2023-06-10T14:06:01;9.80;;;2.20;;
77018;SDS011;66044;53.142;17.962;2023-06-10T14:08:28;10.20;;;2.00;;
77018;SDS011;66044;53.142;17.962;2023-06-10T14:10:55;5.60;;;1.40;;
77018;SDS011;66044;53.142;17.962;2023-06-10T14:13:21;6.80;;;1.90;;
77018;SDS011;66044;53.142;17.962;2023-06-10T14:15:48;8.80;;;1.60;;
77018;SDS011;66044;53.142;17.962;2023-06-10T14:18:15;10.40;;;2.00;;
77018;SDS011;66044;53.142;17.962;2023-06-10T14:20:41;7.50;;;1.60;;
77018;SDS011;66044;53.142;17.962;2023-06-10T14:23:08;6.70;;;1.80;;
77018;SDS011;66044;53.142;17.962;2023-06-10T14:25:34;6.00;;;1.60;;
77018;SDS011;66044;53.142;17.962;2023-06-10T14:28:01;6.10;;;1.60;;
77018;SDS011;66044;53.142;17.962;2023-06-10T14:30:27;5.10;;;1.60;;
77018;SDS011;66044;53.142;17.962;2023-06-10T14:32:54;7.60;;;1.30;;
77018;SDS011;66044;53.142;17.962;2023-06-10T14:35:20;4.30;;;1.20;;
77018;SDS011;66044;53.142;17.962;2023-06-10T14:37:47;7.50;;;1.80;;
77018;SDS011;66044;53.142;17.962;2023-06-10T14:40:14;6.00;;;1.50;;
77018;SDS011;66044;53.142;17.962;2023-06-10T14:42:40;4.50;;;1.30;;
77018;SDS011;66044;53.142;17.962;2023-06-10T14:45:07;6.20;;;1.70;;
77018;SDS011;66044;53.142;17.962;2023-06-10T14:47:36;4.80;;;1.30;;
77018;SDS011;66044;53.142;17.962;2023-06-10T14:50:02;6.00;;;1.60;;
77018;SDS011;66044;53.142;17.962;2023-06-10T14:52:30;8.00;;;2.00;;